Time;durP1;ratioP1;P1;durP2;ratioP2;P2;SDS_P1;SDS_P2;PMS_P1;PMS_P2;Temp;Humidity;BMP_temperature;BMP_pressure;BME280_temperature;BME280_humidity;BME280_pressure;Samples;Min_cycle;Max_cycle;Signal;HPM_P1;HPM_P2
2022/07/01 00:01:31;;;;;;;25.10;8.05;;;;;;;18.10;64.76;100064.16;1811172;79;21158;-80
2022/07/01 00:04:36;;;;;;;17.17;7.70;;;;;;;18.06;64.90;100064.31;1810187;79;21160;-80
2022/07/01 00:08:00;;;;;;;15.25;7.85;;;;;;;18.04;65.07;100068.41;1811352;79;21723;-80
2022/07/01 00:11:05;;;;;;;25.62;8.48;;;;;;;17.98;65.33;100062.42;1811248;79;21168;-80
2022/07/01 00:14:12;;;;;;;23.85;10.23;;;;;;;17.92;65.56;100061.39;1810290;79;21787;-80
2022/07/01 00:17:17;;;;;;;28.23;12.35;;;;;;;17.89;65.94;100061.88;1811295;79;21172;-80
2022/07/01 00:20:23;;;;;;;31.42;11.88;;;;;;;17.84;66.28;100066.72;1811242;79;21165;-80
2022/07/01 00:23:28;;;;;;;34.95;13.20;;;;;;;17.78;66.63;100064.00;1811384;79;21185;-80
2022/07/01 00:26:35;;;;;;;35.17;12.50;;;;;;;17.72;67.06;100058.82;1811322;79;21715;-80
2022/07/01 00:29:41;;;;;;;26.55;11.48;;;;;;;17.66;67.40;100062.52;1810200;79;21255;-80
2022/07/01 00:32:47;;;;;;;29.57;12.25;;;;;;;17.63;67.74;100060.20;1811256;79;21222;-80
2022/07/01 00:35:46;;;;;;;26.35;11.83;;;;;;;17.58;68.09;100060.87;1809764;79;21212;-80
2022/07/01 00:38:51;;;;;;;24.75;11.65;;;;;;;17.54;68.52;100049.95;1811205;79;21196;-80
2022/07/01 00:41:57;;;;;;;26.17;11.97;;;;;;;17.50;68.90;100057.05;1808490;79;21177;-81
2022/07/01 00:45:03;;;;;;;26.95;10.98;;;;;;;17.46;69.23;100050.28;1769309;81;21225;-81
2022/07/01 00:48:09;;;;;;;25.27;11.25;;;;;;;17.41;69.56;100047.35;1768928;81;21193;-80
2022/07/01 00:51:11;;;;;;;26.57;11.37;;;;;;;17.37;69.89;100050.26;1769331;80;21220;-81
2022/07/01 00:54:18;;;;;;;21.77;11.45;;;;;;;17.29;70.23;100054.14;1770335;81;21780;-81
2022/07/01 00:57:24;;;;;;;17.57;9.58;;;;;;;17.25;70.55;100054.28;1770223;81;21253;-81
2022/07/01 01:00:31;;;;;;;23.40;9.48;;;;;;;17.20;70.86;100052.73;1769052;81;21221;-81
2022/07/01 01:03:37;;;;;;;29.75;11.20;;;;;;;17.14;71.09;100058.33;1770186;81;21733;-80
2022/07/01 01:06:43;;;;;;;16.90;9.50;;;;;;;17.06;71.38;100060.28;1747555;81;21732;-80
2022/07/01 01:09:50;;;;;;;16.55;10.03;;;;;;;17.04;71.70;100063.83;1770358;81;21176;-80
2022/07/01 01:12:56;;;;;;;21.10;8.70;;;;;;;16.97;72.03;100058.02;1770346;81;21228;-80
2022/07/01 01:16:04;;;;;;;26.10;10.08;;;;;;;16.93;72.39;100059.00;1768752;81;21220;-80
2022/07/01 01:19:13;;;;;;;21.05;10.08;;;;;;;16.91;72.71;100057.02;1770186;81;21161;-80
2022/07/01 01:22:23;;;;;;;22.22;10.65;;;;;;;16.92;72.86;100063.38;1770366;81;21855;-80
2022/07/01 01:25:29;;;;;;;27.22;9.88;;;;;;;16.93;72.86;100059.00;1769764;81;21201;-80
2022/07/01 01:28:35;;;;;;;19.20;9.65;;;;;;;16.92;72.84;100058.70;1770297;81;21537;-80
2022/07/01 01:31:41;;;;;;;18.92;9.83;;;;;;;16.91;72.84;100057.02;1770421;81;21232;-80
2022/07/01 01:34:47;;;;;;;21.70;9.35;;;;;;;16.90;72.80;100053.10;1769998;81;21221;-80
2022/07/01 01:37:54;;;;;;;21.90;9.73;;;;;;;16.89;72.84;100058.30;1770318;81;21300;-80
2022/07/01 01:41:00;;;;;;;24.52;9.18;;;;;;;16.85;72.89;100055.16;1770302;81;21227;-80
2022/07/01 01:44:06;;;;;;;19.70;9.90;;;;;;;16.82;73.01;100064.72;1770774;79;21260;-80
2022/07/01 01:47:12;;;;;;;23.12;9.40;;;;;;;16.74;73.21;100055.31;1770304;81;21184;-80
2022/07/01 01:50:19;;;;;;;18.45;9.65;;;;;;;16.70;73.44;100068.38;1770121;81;21225;-80
2022/07/01 01:53:25;;;;;;;24.70;9.10;;;;;;;16.67;73.70;100073.82;1770400;81;21392;-80
2022/07/01 01:56:32;;;;;;;20.02;9.43;;;;;;;16.66;73.96;100073.52;1769045;81;21262;-80
2022/07/01 01:59:37;;;;;;;20.57;9.33;;;;;;;16.66;74.26;100071.30;1768825;81;21232;-80
2022/07/01 02:02:45;;;;;;;17.60;8.73;;;;;;;16.76;74.48;100078.59;1770258;81;21792;-80
2022/07/01 02:05:51;;;;;;;24.77;10.75;;;;;;;17.00;74.36;100079.16;1769622;81;21188;-80
2022/07/01 02:08:56;;;;;;;18.77;9.80;;;;;;;17.34;74.04;100076.96;1768696;81;21200;-81
2022/07/01 02:12:02;;;;;;;26.62;10.63;;;;;;;17.69;73.40;100068.98;1768814;81;21185;-80
2022/07/01 02:15:01;;;;;;;23.13;11.40;;;;;;;18.07;72.60;100075.71;1770337;81;21220;-80
2022/07/01 02:18:08;;;;;;;19.07;10.13;;;;;;;18.48;71.54;100078.27;1770280;81;21783;-80
2022/07/01 02:21:13;;;;;;;25.80;11.22;;;;;;;18.87;70.08;100075.52;1768760;81;22484;-80
2022/07/01 02:24:19;;;;;;;24.92;11.45;;;;;;;19.20;68.74;100074.69;1770219;81;21541;-80
2022/07/01 02:27:25;;;;;;;21.87;10.03;;;;;;;19.55;67.42;100070.00;1768889;81;21205;-80
2022/07/01 02:30:35;;;;;;;18.23;9.80;;;;;;;19.97;65.78;100082.38;1770044;81;21260;-80
2022/07/01 02:33:40;;;;;;;20.40;10.10;;;;;;;20.35;64.32;100080.42;1770346;81;21237;-80
2022/07/01 02:36:46;;;;;;;23.42;9.83;;;;;;;20.79;62.71;100084.09;1769415;81;21233;-80
2022/07/01 02:39:53;;;;;;;17.57;9.28;;;;;;;21.19;60.83;100092.34;1770346;81;21284;-80
2022/07/01 02:42:59;;;;;;;18.20;9.13;;;;;;;21.55;59.60;100091.04;1770243;81;21221;-80
2022/07/01 02:45:59;;;;;;;16.95;8.90;;;;;;;21.98;58.09;100089.45;1796231;79;21755;-81
2022/07/01 02:49:05;;;;;;;20.60;8.35;;;;;;;22.40;56.36;100087.55;1802606;79;21176;-80
2022/07/01 02:52:10;;;;;;;13.53;7.53;;;;;;;22.74;54.64;100091.56;1802667;79;21216;-80
2022/07/01 02:55:17;;;;;;;17.37;8.48;;;;;;;22.92;53.08;100083.70;1801091;79;21224;-81
2022/07/01 02:58:23;;;;;;;17.70;8.28;;;;;;;22.92;53.10;100089.84;1802491;79;21236;-80
2022/07/01 03:01:28;;;;;;;17.60;7.20;;;;;;;23.19;52.55;100087.85;1801982;79;21212;-80
2022/07/01 03:04:33;;;;;;;17.17;6.65;;;;;;;23.61;51.52;100089.88;1802636;79;21181;-80
2022/07/01 03:07:41;;;;;;;13.93;7.30;;;;;;;24.02;50.25;100092.15;1801256;79;21181;-80
2022/07/01 03:10:47;;;;;;;21.87;7.80;;;;;;;24.30;49.30;100097.89;1802560;79;21213;-79
2022/07/01 03:13:54;;;;;;;12.15;6.85;;;;;;;24.56;48.65;100092.73;1801220;79;21771;-80
2022/07/01 03:17:00;;;;;;;17.45;7.58;;;;;;;24.80;47.91;100100.64;1801890;79;21201;-80
2022/07/01 03:20:06;;;;;;;17.82;7.17;;;;;;;24.95;47.20;100103.47;1802575;79;21814;-80
2022/07/01 03:23:10;;;;;;;18.02;7.67;;;;;;;24.87;46.91;100104.00;1802762;79;21157;-80
2022/07/01 03:26:18;;;;;;;17.40;7.50;;;;;;;24.69;47.21;100108.13;1802492;79;21196;-80
2022/07/01 03:29:25;;;;;;;18.48;6.92;;;;;;;24.53;47.68;100103.05;1802774;79;21169;-80
2022/07/01 03:32:31;;;;;;;15.93;6.90;;;;;;;24.39;48.13;100104.11;1801650;79;21839;-80
2022/07/01 03:35:45;;;;;;;19.05;6.55;;;;;;;24.37;48.15;100106.36;1802709;79;21177;-80
2022/07/01 03:38:46;;;;;;;16.73;6.33;;;;;;;24.50;47.95;100104.15;1786300;79;21165;-80
2022/07/01 03:41:53;;;;;;;21.60;6.87;;;;;;;24.61;47.32;100103.09;1802608;79;21169;-80
2022/07/01 03:44:59;;;;;;;26.15;6.28;;;;;;;24.72;47.08;100114.03;1803109;79;21161;-80
2022/07/01 03:48:04;;;;;;;11.25;6.47;;;;;;;24.89;46.91;100110.14;1801522;79;21208;-80
2022/07/01 03:51:11;;;;;;;10.85;6.10;;;;;;;25.02;46.33;100111.58;1802735;79;21177;-80
2022/07/01 03:54:52;;;;;;;16.97;6.08;;;;;;;25.10;46.20;100109.12;1802852;79;21747;-80
2022/07/01 03:57:30;;;;;;;18.70;5.90;;;;;;;25.21;45.95;100105.20;1799939;79;21775;-79
2022/07/01 04:00:36;;;;;;;8.70;5.40;;;;;;;25.26;45.38;100107.73;1802753;79;21744;-80
2022/07/01 04:03:42;;;;;;;23.92;5.65;;;;;;;25.24;44.99;100111.66;1802541;79;21842;-80
2022/07/01 04:06:49;;;;;;;17.32;5.70;;;;;;;25.21;44.87;100109.97;1801495;79;21185;-80
2022/07/01 04:09:55;;;;;;;12.18;4.80;;;;;;;25.29;45.04;100105.22;1801366;79;21217;-80
2022/07/01 04:13:02;;;;;;;8.93;5.37;;;;;;;25.37;44.47;100108.04;1802635;79;21169;-80
2022/07/01 04:16:09;;;;;;;11.45;5.33;;;;;;;25.34;44.70;100103.83;1801736;79;21173;-80
2022/07/01 04:19:16;;;;;;;9.70;4.20;;;;;;;25.24;44.62;100101.02;1802749;79;21232;-80
2022/07/01 04:22:33;;;;;;;8.03;3.87;;;;;;;25.16;44.46;100095.97;1802869;79;21223;-80
2022/07/01 04:25:40;;;;;;;8.48;4.15;;;;;;;25.18;44.61;100097.39;1802963;79;21284;-80
2022/07/01 04:28:45;;;;;;;7.20;3.83;;;;;;;25.20;44.45;100096.53;1801667;79;21857;-80
2022/07/01 04:31:51;;;;;;;6.37;4.05;;;;;;;25.31;44.11;100092.34;1802747;79;21763;-80
2022/07/01 04:34:56;;;;;;;8.80;4.90;;;;;;;25.47;44.56;100098.23;1801227;79;21181;-80
2022/07/01 04:38:04;;;;;;;12.28;4.35;;;;;;;25.68;45.00;100104.09;1801211;79;21252;-80
2022/07/01 04:44:43;;;;;;;5.53;3.10;;;;;;;26.17;44.83;100096.48;1802895;79;21640;-80
2022/07/01 04:47:49;;;;;;;4.87;3.08;;;;;;;26.42;42.62;100096.12;1807413;79;21173;-80
2022/07/01 04:50:55;;;;;;;5.95;2.87;;;;;;;26.58;40.75;100090.73;1811292;79;21224;-80
2022/07/01 04:54:03;;;;;;;9.70;3.15;;;;;;;26.68;39.93;100093.52;1810126;79;21157;-80
2022/07/01 04:57:07;;;;;;;9.53;2.92;;;;;;;26.79;39.60;100093.45;1809712;79;21176;-79
2022/07/01 05:00:14;;;;;;;4.87;3.15;;;;;;;26.85;39.86;100093.12;1811116;79;21771;-80
2022/07/01 05:03:20;;;;;;;3.98;2.37;;;;;;;26.86;39.91;100099.57;1810657;79;21192;-80
2022/07/01 05:06:26;;;;;;;4.83;2.80;;;;;;;26.90;40.09;100096.46;1784464;79;21166;-80
2022/07/01 05:09:19;;;;;;;2.92;1.87;;;;;;;26.99;40.27;100096.12;1777968;80;21236;-80
2022/07/01 05:12:25;;;;;;;8.58;2.50;;;;;;;27.14;40.12;100092.41;1778280;80;21200;-81
2022/07/01 05:15:30;;;;;;;4.85;2.58;;;;;;;27.16;40.32;100106.44;1778970;80;21200;-81
2022/07/01 05:22:00;;;;;;;10.75;2.92;;;;;;;27.16;41.38;100102.23;1779338;80;21165;-81
2022/07/01 05:25:06;;;;;;;6.00;3.58;;;;;;;27.20;41.82;100112.31;1779279;80;21182;-82
2022/07/01 05:28:13;;;;;;;10.25;2.87;;;;;;;27.25;42.03;100106.09;1779004;80;21220;-80
2022/07/01 05:31:18;;;;;;;4.87;2.62;;;;;;;27.30;42.51;100117.02;1779243;80;21755;-80
2022/07/01 05:34:25;;;;;;;6.50;3.12;;;;;;;27.35;42.37;100115.58;1778447;80;21236;-80
2022/07/01 05:37:31;;;;;;;8.43;3.70;;;;;;;27.39;42.85;100108.25;1779175;80;21181;-80
2022/07/01 05:40:37;;;;;;;6.15;3.52;;;;;;;27.45;42.97;100105.66;1779294;80;21724;-80
2022/07/01 05:43:43;;;;;;;9.93;4.03;;;;;;;27.50;43.10;100107.02;1779109;80;21189;-80
2022/07/01 05:46:48;;;;;;;8.90;4.80;;;;;;;27.56;42.92;100105.84;1777864;80;21162;-80
2022/07/01 05:49:54;;;;;;;6.22;3.98;;;;;;;27.56;43.06;100106.41;1777744;80;21775;-80
2022/07/01 05:53:01;;;;;;;8.40;4.40;;;;;;;27.54;43.60;100101.09;1779471;80;21181;-80
2022/07/01 05:56:06;;;;;;;11.57;4.22;;;;;;;27.57;43.72;100111.75;1779275;80;21170;-80
2022/07/01 05:59:12;;;;;;;14.98;5.10;;;;;;;27.56;43.90;100117.64;1778025;80;21256;-80
2022/07/01 06:02:17;;;;;;;9.48;4.40;;;;;;;27.51;43.30;100111.50;1779274;80;21228;-80
2022/07/01 06:05:23;;;;;;;7.55;4.00;;;;;;;27.42;43.47;100116.91;1777971;80;21799;-80
2022/07/01 06:08:30;;;;;;;7.15;3.15;;;;;;;27.37;43.15;100113.30;1779252;80;21255;-80
2022/07/01 06:11:35;;;;;;;9.05;3.20;;;;;;;27.32;43.02;100102.11;1779233;80;21224;-80
2022/07/01 06:14:40;;;;;;;7.45;3.17;;;;;;;27.37;42.90;100105.71;1779600;80;21185;-80
2022/07/01 06:17:49;;;;;;;4.78;2.58;;;;;;;27.44;42.30;100106.23;1779149;80;21196;-80
2022/07/01 06:20:55;;;;;;;5.28;2.40;;;;;;;27.47;42.88;100103.38;1782358;79;21743;-80
2022/07/01 06:23:54;;;;;;;3.98;2.55;;;;;;;27.48;42.88;100100.88;1793585;80;21154;-80
2022/07/01 06:27:00;;;;;;;5.42;2.62;;;;;;;27.47;43.06;100098.60;1796887;80;21221;-80
2022/07/01 06:30:06;;;;;;;10.98;3.08;;;;;;;27.53;42.83;100094.37;1785863;79;21200;-80
2022/07/01 06:33:12;;;;;;;4.28;3.12;;;;;;;27.62;42.95;100093.45;1792269;79;21808;-79
2022/07/01 06:36:18;;;;;;;5.35;2.62;;;;;;;27.63;42.89;100097.92;1783701;79;21168;-80
2022/07/01 06:39:23;;;;;;;5.92;2.58;;;;;;;27.65;42.89;100092.83;1777995;80;21232;-80
2022/07/01 06:42:30;;;;;;;8.55;3.22;;;;;;;27.76;42.86;100100.09;1779242;80;21236;-79
2022/07/01 06:45:36;;;;;;;6.12;2.50;;;;;;;27.81;42.82;100095.52;1779759;79;21181;-80
2022/07/01 06:48:42;;;;;;;8.18;3.80;;;;;;;27.87;42.64;100092.95;1760188;81;21236;-80
2022/07/01 06:51:48;;;;;;;10.10;3.67;;;;;;;27.96;42.42;100094.83;1732785;81;21229;-80
2022/07/01 06:54:55;;;;;;;4.45;2.80;;;;;;;28.02;42.18;100095.60;1738996;81;21209;-80
2022/07/01 06:58:01;;;;;;;5.35;2.42;;;;;;;28.02;41.99;100099.81;1763949;81;21758;-79
2022/07/01 07:01:06;;;;;;;7.42;3.20;;;;;;;28.03;41.84;100095.30;1736236;82;21195;-80
2022/07/01 07:04:12;;;;;;;9.00;2.50;;;;;;;28.11;41.51;100083.14;1757127;81;21322;-80
2022/07/01 07:07:13;;;;;;;14.93;3.03;;;;;;;28.18;40.47;100090.09;1758123;81;21728;-80
2022/07/01 07:10:19;;;;;;;6.83;2.30;;;;;;;28.31;40.63;100091.91;1729496;82;21196;-80
2022/07/01 07:13:25;;;;;;;6.95;2.25;;;;;;;28.40;39.92;100094.36;1739425;81;21215;-80
2022/07/01 07:16:30;;;;;;;7.03;2.35;;;;;;;28.51;38.56;100088.86;1739419;81;21208;-80
2022/07/01 07:19:36;;;;;;;5.12;2.33;;;;;;;28.69;37.31;100088.06;1733557;81;21878;-80
2022/07/01 07:22:42;;;;;;;8.60;2.40;;;;;;;28.69;37.31;100088.06;1742514;81;21172;-80
2022/07/01 07:25:48;;;;;;;4.55;2.50;;;;;;;28.57;37.92;100093.30;1728037;82;21237;-80
2022/07/01 07:28:54;;;;;;;6.87;2.42;;;;;;;28.42;37.84;100092.94;1729781;82;21173;-80
2022/07/01 07:32:00;;;;;;;6.05;2.40;;;;;;;28.35;38.17;100101.45;1730197;82;21184;-80
2022/07/01 07:35:06;;;;;;;3.45;2.17;;;;;;;28.37;38.74;100105.66;1729174;82;21181;-80
2022/07/01 07:38:13;;;;;;;10.03;2.85;;;;;;;28.37;38.39;100096.35;1751907;81;21164;-80
2022/07/01 07:41:18;;;;;;;5.35;2.37;;;;;;;28.27;38.74;100099.52;1751144;81;21194;-80
2022/07/01 07:44:23;;;;;;;9.28;2.00;;;;;;;28.21;38.53;100090.05;1735732;82;21173;-79
2022/07/01 07:47:29;;;;;;;5.03;2.17;;;;;;;28.17;38.96;100094.02;1733365;82;21184;-80
2022/07/01 07:50:23;;;;;;;3.50;2.37;;;;;;;28.21;38.75;100095.67;1731947;82;21200;-80
2022/07/01 07:53:29;;;;;;;7.12;2.70;;;;;;;28.32;38.75;100099.20;1729313;82;21231;-80
2022/07/01 07:56:33;;;;;;;5.10;2.90;;;;;;;28.38;37.70;100099.45;1718895;82;21700;-80
2022/07/01 07:59:41;;;;;;;3.95;2.27;;;;;;;28.35;37.11;100112.70;1726285;82;21205;-80
2022/07/01 08:02:48;;;;;;;3.72;1.92;;;;;;;28.35;37.11;100112.70;1721439;82;21173;-80
2022/07/01 08:05:54;;;;;;;7.67;1.90;;;;;;;28.33;36.98;100099.48;1726390;82;21177;-80
2022/07/01 08:09:00;;;;;;;4.10;2.22;;;;;;;28.35;36.56;100114.11;1719430;82;21178;-80
2022/07/01 08:12:06;;;;;;;4.87;1.72;;;;;;;28.26;36.55;100109.10;1716199;82;21170;-80
2022/07/01 08:15:13;;;;;;;3.72;2.05;;;;;;;28.21;36.54;100106.35;1724233;82;21176;-80
2022/07/01 08:18:20;;;;;;;6.70;2.12;;;;;;;28.10;36.60;100103.97;1723555;82;21169;-80
2022/07/01 08:21:26;;;;;;;3.65;1.92;;;;;;;28.09;36.70;100107.34;1728960;82;21216;-80
2022/07/01 08:24:30;;;;;;;11.63;2.10;;;;;;;28.11;36.09;100103.66;1779850;79;21244;-79
2022/07/01 08:27:37;;;;;;;7.78;1.92;;;;;;;28.09;36.63;100102.27;1788692;79;21728;-79
2022/07/01 08:30:46;;;;;;;4.80;1.70;;;;;;;27.99;36.12;100100.41;1779237;79;21795;-79
2022/07/01 08:33:51;;;;;;;3.55;2.50;;;;;;;27.88;36.27;100101.66;1783405;79;21732;-79
2022/07/01 08:37:00;;;;;;;4.05;1.85;;;;;;;27.86;36.02;100104.77;1781034;79;21222;-80
2022/07/01 08:40:06;;;;;;;8.45;1.95;;;;;;;27.86;35.93;100105.34;1781586;79;21205;-80
2022/07/01 08:43:14;;;;;;;7.00;2.47;;;;;;;27.97;35.84;100101.28;1776770;79;21156;-80
2022/07/01 08:46:19;;;;;;;10.48;2.30;;;;;;;28.06;35.04;100114.95;1772074;79;21181;-80
2022/07/01 08:49:25;;;;;;;7.28;1.67;;;;;;;28.10;34.91;100104.80;1770195;79;21252;-80
2022/07/01 08:52:31;;;;;;;4.70;2.10;;;;;;;28.19;35.16;100102.18;1781520;79;21149;-80
2022/07/01 08:58:47;;;;;;;5.70;1.77;;;;;;;28.25;34.09;100097.59;1769851;79;21205;-80
2022/07/01 09:01:52;;;;;;;7.20;1.80;;;;;;;28.22;34.15;100095.37;1783594;79;21157;-80
2022/07/01 09:05:13;;;;;;;5.00;2.42;;;;;;;28.25;33.92;100097.59;1793249;79;21811;-80
2022/07/01 09:08:17;;;;;;;;;;;;;;;28.25;33.92;100097.59;1787914;79;21181;-80
2022/07/01 09:11:33;;;;;;;3.55;2.00;;;;;;;28.24;33.97;100088.05;1796839;79;20224;-80
2022/07/01 09:14:42;;;;;;;6.10;2.50;;;;;;;28.23;33.90;100095.66;1782191;79;22311;-80
2022/07/01 09:17:48;;;;;;;13.23;2.87;;;;;;;28.13;34.50;100097.16;1782093;79;21209;-80
2022/07/01 09:20:55;;;;;;;4.62;2.20;;;;;;;28.10;34.39;100087.93;1776313;79;21189;-80
2022/07/01 09:24:01;;;;;;;5.42;2.52;;;;;;;28.08;34.39;100085.97;1785385;79;21157;-79
2022/07/01 09:27:17;;;;;;;7.33;2.65;;;;;;;28.09;34.58;100077.83;1796503;79;21827;-79
2022/07/01 09:30:24;;;;;;;6.83;2.37;;;;;;;28.10;34.68;100080.07;1779191;79;21176;-80
2022/07/01 09:33:35;;;;;;;5.85;1.95;;;;;;;28.03;35.42;100064.37;1783617;79;21161;-80
2022/07/01 09:36:40;;;;;;;;;;;;;;;28.10;34.85;100071.06;1781428;79;21166;-79
2022/07/01 09:39:50;;;;;;;15.28;2.72;;;;;;;28.16;34.50;100067.62;1784795;79;20239;-80
2022/07/01 09:42:54;;;;;;;;;;;;;;;28.23;33.89;100063.33;1777702;79;21252;-80
2022/07/01 09:46:06;;;;;;;9.93;2.37;;;;;;;28.27;34.10;100053.13;1774855;79;20620;-80
2022/07/01 09:49:13;;;;;;;5.25;1.70;;;;;;;28.26;32.49;100057.08;1777129;79;21153;-80
2022/07/01 09:52:20;;;;;;;8.55;1.50;;;;;;;28.20;32.79;100055.47;1779186;79;21252;-80
2022/07/01 09:55:26;;;;;;;2.92;1.50;;;;;;;28.18;32.31;100050.73;1785221;79;21198;-80
2022/07/01 09:58:32;;;;;;;4.67;1.40;;;;;;;28.24;32.15;100057.13;1801687;79;21220;-80
2022/07/01 10:01:42;;;;;;;2.98;1.55;;;;;;;28.31;30.50;100062.38;1786788;79;21283;-80
2022/07/01 10:04:51;;;;;;;2.22;1.40;;;;;;;28.35;29.65;100050.83;1797499;79;21168;-80
2022/07/01 10:08:27;;;;;;;4.10;1.55;;;;;;;28.33;30.33;100054.49;1786078;79;21192;-79
2022/07/01 10:11:40;;;;;;;6.58;2.12;;;;;;;28.34;30.63;100042.10;1790309;79;21711;-80
2022/07/01 10:14:47;;;;;;;6.35;2.05;;;;;;;28.29;30.87;100026.13;1763731;79;21172;-80
2022/07/01 10:17:57;;;;;;;9.38;1.35;;;;;;;28.28;30.86;100039.36;1786573;79;21195;-79
2022/07/01 10:21:05;;;;;;;11.97;1.70;;;;;;;28.27;30.56;100032.03;1798030;79;21727;-80
2022/07/01 10:24:24;;;;;;;2.98;1.30;;;;;;;28.24;29.73;100021.41;1793316;79;21161;-80
2022/07/01 10:27:32;;;;;;;6.30;1.47;;;;;;;28.25;28.47;100021.66;1797808;79;21164;-80
2022/07/01 10:30:39;;;;;;;3.25;1.30;;;;;;;28.31;27.99;100021.59;1802203;79;21212;-80
2022/07/01 10:33:55;;;;;;;3.52;1.27;;;;;;;28.39;28.50;100023.78;1800207;79;21168;-80
2022/07/01 10:37:12;;;;;;;4.78;1.32;;;;;;;28.46;28.35;100023.66;1792470;79;21219;-80
2022/07/01 10:40:18;;;;;;;4.12;1.45;;;;;;;28.49;27.79;100015.20;1789045;79;21228;-80
2022/07/01 10:43:27;;;;;;;3.45;1.35;;;;;;;28.47;25.75;100016.09;1798122;79;21172;-80
2022/07/01 10:46:56;;;;;;;;;;;;;;;28.40;26.36;100032.48;1790991;79;21161;-80
2022/07/01 10:50:05;;;;;;;4.80;1.27;;;;;;;28.34;26.68;100013.44;1796108;79;20213;-80
2022/07/01 10:53:11;;;;;;;4.20;1.50;;;;;;;28.30;27.07;100012.33;1792913;79;21177;-80
2022/07/01 10:56:19;;;;;;;8.55;1.40;;;;;;;28.28;27.77;100014.05;1778817;79;21224;-80
2022/07/01 10:59:27;;;;;;;2.92;1.52;;;;;;;28.34;27.82;100019.06;1757450;80;21245;-80
2022/07/01 11:02:34;;;;;;;6.35;1.70;;;;;;;28.36;27.13;100017.34;1752986;80;21461;-80
2022/07/01 11:05:27;;;;;;;6.33;1.50;;;;;;;28.33;27.47;100013.72;1765378;80;21147;-80
2022/07/01 11:08:32;;;;;;;5.27;1.73;;;;;;;28.33;26.98;100016.53;1774939;80;21159;-80
2022/07/01 11:11:39;;;;;;;6.12;1.50;;;;;;;28.31;27.19;100006.97;1775694;80;21756;-80
2022/07/01 11:14:47;;;;;;;3.00;2.10;;;;;;;28.32;27.23;100016.23;1748848;80;21175;-80
2022/07/01 11:17:55;;;;;;;6.60;1.40;;;;;;;28.36;26.21;100020.16;1769879;80;21186;-80
2022/07/01 11:21:12;;;;;;;4.22;1.52;;;;;;;28.36;26.21;100020.16;1786220;80;21161;-80
2022/07/01 11:24:18;;;;;;;9.30;1.70;;;;;;;28.35;26.01;100002.45;1775601;80;21186;-80
2022/07/01 11:27:24;;;;;;;9.33;1.72;;;;;;;28.35;27.00;100014.27;1780898;80;21216;-80
2022/07/01 11:30:31;;;;;;;5.28;1.60;;;;;;;28.34;26.99;100008.35;1753038;80;21153;-80
2022/07/01 11:33:39;;;;;;;3.72;1.42;;;;;;;28.34;26.99;100008.35;1750448;82;21228;-79
2022/07/01 11:40:17;;;;;;;5.53;1.42;;;;;;;28.38;28.15;100004.67;1743636;80;21182;-80
2022/07/01 11:43:36;;;;;;;4.85;1.72;;;;;;;28.41;27.79;99995.60;1770771;80;21791;-80
2022/07/01 11:46:39;;;;;;;5.42;1.60;;;;;;;28.37;29.29;99997.91;1769708;80;22410;-80
2022/07/01 11:49:46;;;;;;;9.43;1.67;;;;;;;28.30;29.00;99991.81;1778179;80;21724;-80
2022/07/01 11:52:54;;;;;;;4.45;1.50;;;;;;;28.25;28.85;99976.67;1777755;79;21176;-80
2022/07/01 11:56:00;;;;;;;3.52;1.55;;;;;;;28.26;29.64;99976.94;1774162;79;21236;-80
2022/07/01 11:58:58;;;;;;;10.20;1.50;;;;;;;28.30;29.19;99980.56;1769639;80;21160;-80
2022/07/01 12:01:53;;;;;;;8.45;1.52;;;;;;;28.33;28.21;99971.53;1768377;79;21153;-80
2022/07/01 12:05:02;;;;;;;7.87;1.40;;;;;;;28.33;28.76;99990.64;1753865;81;21211;-79
2022/07/01 12:07:59;;;;;;;6.28;1.67;;;;;;;28.33;28.76;99990.64;1772233;80;21231;-80
2022/07/01 12:11:08;;;;;;;6.40;1.70;;;;;;;28.27;29.14;99977.20;1772203;81;21260;-80
2022/07/01 12:14:13;;;;;;;2.72;1.40;;;;;;;28.23;29.22;99974.75;1771740;81;21201;-80
2022/07/01 12:17:19;;;;;;;6.85;2.10;;;;;;;28.20;28.36;99985.18;1771470;81;21201;-80
2022/07/01 12:20:40;;;;;;;3.67;1.57;;;;;;;28.20;28.36;99985.18;1713875;81;21213;-80
2022/07/01 12:23:45;;;;;;;3.27;1.25;;;;;;;28.16;28.26;99965.83;1773715;81;21201;-80
2022/07/01 12:27:10;;;;;;;4.87;1.70;;;;;;;28.14;28.90;99969.52;1773443;81;21223;-80
2022/07/01 12:30:16;;;;;;;4.10;1.70;;;;;;;28.13;28.22;99978.24;1774952;81;21185;-80
2022/07/01 12:33:21;;;;;;;4.50;1.50;;;;;;;28.15;28.32;99980.20;1774763;81;21185;-79
2022/07/01 12:36:28;;;;;;;4.28;1.52;;;;;;;28.14;28.16;99970.93;1752172;81;21228;-80
2022/07/01 12:39:34;;;;;;;4.47;1.70;;;;;;;28.16;28.76;99974.84;1774873;81;21751;-80
2022/07/01 12:42:51;;;;;;;2.42;1.40;;;;;;;28.14;28.35;99977.95;1774578;81;21181;-80
2022/07/01 12:45:57;;;;;;;3.45;1.60;;;;;;;28.12;28.50;99980.22;1773678;81;21221;-79
2022/07/01 12:49:01;;;;;;;3.22;1.25;;;;;;;28.08;29.05;99970.70;1774861;81;21185;-79
2022/07/01 12:52:07;;;;;;;5.12;1.72;;;;;;;28.06;28.81;99964.56;1774922;81;21236;-80
2022/07/01 12:55:27;;;;;;;6.70;1.60;;;;;;;28.06;29.27;99971.59;1773413;81;21196;-80
2022/07/01 12:58:33;;;;;;;;;;;;;;;28.06;29.58;99974.41;1802565;79;21200;-80
2022/07/01 13:01:39;;;;;;;4.28;1.12;;;;;;;28.07;29.81;99970.45;1811575;79;20196;-80
2022/07/01 13:04:45;;;;;;;3.67;1.70;;;;;;;28.08;29.72;99967.06;1810048;79;21214;-80
2022/07/01 13:07:50;;;;;;;4.62;1.40;;;;;;;28.09;29.64;99966.78;1811644;79;21169;-80
2022/07/01 13:10:57;;;;;;;3.70;1.50;;;;;;;28.10;29.55;99981.67;1809422;79;21770;-80
2022/07/01 13:14:03;;;;;;;7.70;1.60;;;;;;;28.07;29.88;99974.66;1785608;79;21703;-80
2022/07/01 13:17:09;;;;;;;5.78;2.00;;;;;;;28.03;30.59;99984.26;1800894;79;21213;-80
2022/07/01 13:20:16;;;;;;;8.28;1.70;;;;;;;27.99;30.37;99979.53;1777845;80;21196;-79
2022/07/01 13:23:23;;;;;;;5.75;1.60;;;;;;;27.96;30.81;99971.16;1801250;79;21168;-80
2022/07/01 13:26:30;;;;;;;5.22;1.47;;;;;;;27.93;30.90;99963.87;1792874;79;21205;-79
2022/07/01 13:29:37;;;;;;;5.10;1.65;;;;;;;27.93;31.24;99964.72;1778586;80;21190;-80
2022/07/01 13:32:45;;;;;;;4.67;2.05;;;;;;;27.93;31.09;99968.93;1778982;80;21224;-80
2022/07/01 13:35:50;;;;;;;2.80;1.37;;;;;;;27.94;31.19;99984.66;1785849;79;21762;-79
2022/07/01 13:38:55;;;;;;;4.85;2.10;;;;;;;27.90;30.79;99961.66;1797966;79;21191;-80
2022/07/01 13:42:01;;;;;;;4.10;1.50;;;;;;;27.89;31.37;99962.80;1777833;80;21259;-80
2022/07/01 13:45:07;;;;;;;9.23;1.60;;;;;;;27.92;31.13;99959.41;1778672;80;21267;-80
2022/07/01 13:48:12;;;;;;;6.75;1.57;;;;;;;27.93;31.26;99968.09;1777999;80;21196;-79
2022/07/01 13:51:18;;;;;;;4.53;1.50;;;;;;;27.89;31.23;99965.05;1777864;80;21177;-79
2022/07/01 13:54:25;;;;;;;6.17;1.87;;;;;;;27.87;31.59;99969.30;1777940;80;21205;-79
2022/07/01 13:57:31;;;;;;;7.65;2.00;;;;;;;27.81;31.13;99959.23;1805050;79;21517;-80
2022/07/01 14:00:37;;;;;;;5.90;1.62;;;;;;;27.78;31.19;99961.27;1775510;81;21247;-79
2022/07/01 14:03:42;;;;;;;3.80;1.42;;;;;;;27.77;30.46;99964.64;1774721;81;21184;-80
2022/07/01 14:06:48;;;;;;;3.75;1.60;;;;;;;27.72;31.15;99965.54;1775320;81;21216;-79
2022/07/01 14:09:54;;;;;;;6.62;1.57;;;;;;;27.71;31.00;99970.00;1776375;81;21748;-80
2022/07/01 14:13:00;;;;;;;5.50;1.82;;;;;;;27.68;31.35;99962.19;1770752;81;21244;-79
2022/07/01 14:16:06;;;;;;;5.00;1.75;;;;;;;27.67;31.29;99961.35;1775542;81;21180;-79
2022/07/01 14:19:12;;;;;;;7.20;2.27;;;;;;;27.67;31.25;99952.92;1776051;81;21181;-79
2022/07/01 14:22:16;;;;;;;8.33;1.50;;;;;;;27.66;31.38;99954.03;1774648;81;21188;-79
2022/07/01 14:25:22;;;;;;;6.25;1.50;;;;;;;27.65;31.30;99938.32;1774919;81;21484;-80
2022/07/01 14:28:27;;;;;;;2.25;1.30;;;;;;;27.64;31.23;99940.87;1775463;81;21215;-80
2022/07/01 14:31:34;;;;;;;3.45;1.45;;;;;;;27.62;31.12;99954.39;1776569;81;21715;-80
2022/07/01 14:34:40;;;;;;;3.85;1.32;;;;;;;27.60;31.21;99949.62;1776413;81;21282;-80
2022/07/01 14:37:46;;;;;;;6.42;1.47;;;;;;;27.60;30.80;99941.77;1774287;81;21209;-80
2022/07/01 14:40:52;;;;;;;5.65;1.30;;;;;;;27.57;31.06;99947.42;1774396;81;21755;-80